sensor_id;sensor_type;location;lat;lon;timestamp;P1;durP1;ratioP1;P2;durP2;ratioP2
58661;SDS011;44432;49.786;22.760;2023-05-20T00:00:46;19.80;;;16.40;;
58661;SDS011;44432;49.786;22.760;2023-05-20T00:03:19;18.90;;;16.50;;
58661;SDS011;44432;49.786;22.760;2023-05-20T00:05:50;18.60;;;16.60;;
58661;SDS011;44432;49.786;22.760;2023-05-20T00:08:21;19.80;;;16.90;;
58661;SDS011;44432;49.786;22.760;2023-05-20T00:10:52;20.50;;;17.40;;
58661;SDS011;44432;49.786;22.760;2023-05-20T00:13:22;19.40;;;16.50;;
58661;SDS011;44432;49.786;22.760;2023-05-20T00:15:55;19.00;;;17.00;;
58661;SDS011;44432;49.786;22.760;2023-05-20T00:20:55;19.50;;;15.90;;
58661;SDS011;44432;49.786;22.760;2023-05-20T00:23:26;19.30;;;16.40;;
58661;SDS011;44432;49.786;22.760;2023-05-20T00:25:56;21.10;;;17.60;;
58661;SDS011;44432;49.786;22.760;2023-05-20T00:28:27;22.10;;;16.40;;
58661;SDS011;44432;49.786;22.760;2023-05-20T00:30:57;19.00;;;16.70;;
58661;SDS011;44432;49.786;22.760;2023-05-20T00:33:28;19.20;;;17.20;;
58661;SDS011;44432;49.786;22.760;2023-05-20T00:35:59;19.40;;;16.70;;
58661;SDS011;44432;49.786;22.760;2023-05-20T00:38:29;19.00;;;16.70;;
58661;SDS011;44432;49.786;22.760;2023-05-20T00:41:01;18.50;;;16.60;;
58661;SDS011;44432;49.786;22.760;2023-05-20T00:43:31;21.90;;;17.60;;
58661;SDS011;44432;49.786;22.760;2023-05-20T00:46:02;18.80;;;16.80;;
58661;SDS011;44432;49.786;22.760;2023-05-20T00:48:35;20.60;;;16.70;;
58661;SDS011;44432;49.786;22.760;2023-05-20T00:51:10;20.80;;;16.80;;
58661;SDS011;44432;49.786;22.760;2023-05-20T00:53:42;20.20;;;16.80;;
58661;SDS011;44432;49.786;22.760;2023-05-20T00:56:12;19.50;;;17.00;;
58661;SDS011;44432;49.786;22.760;2023-05-20T00:58:43;20.50;;;17.30;;
58661;SDS011;44432;49.786;22.760;2023-05-20T01:01:14;21.10;;;16.60;;
58661;SDS011;44432;49.786;22.760;2023-05-20T01:03:44;18.70;;;16.00;;
58661;SDS011;44432;49.786;22.760;2023-05-20T01:06:16;18.40;;;16.30;;
58661;SDS011;44432;49.786;22.760;2023-05-20T01:08:47;17.90;;;16.00;;
58661;SDS011;44432;49.786;22.760;2023-05-20T01:11:18;18.50;;;16.60;;
58661;SDS011;44432;49.786;22.760;2023-05-20T01:13:55;18.40;;;16.50;;
58661;SDS011;44432;49.786;22.760;2023-05-20T01:16:29;18.00;;;16.20;;
58661;SDS011;44432;49.786;22.760;2023-05-20T01:19:01;19.00;;;16.30;;
58661;SDS011;44432;49.786;22.760;2023-05-20T01:21:37;19.10;;;17.10;;
58661;SDS011;44432;49.786;22.760;2023-05-20T01:24:09;18.80;;;15.60;;
58661;SDS011;44432;49.786;22.760;2023-05-20T01:26:40;18.80;;;16.60;;
58661;SDS011;44432;49.786;22.760;2023-05-20T01:29:15;19.70;;;16.50;;
58661;SDS011;44432;49.786;22.760;2023-05-20T01:31:46;20.30;;;16.60;;
58661;SDS011;44432;49.786;22.760;2023-05-20T01:34:18;25.50;;;17.10;;
58661;SDS011;44432;49.786;22.760;2023-05-20T01:36:49;20.40;;;17.00;;
58661;SDS011;44432;49.786;22.760;2023-05-20T01:39:22;23.70;;;17.50;;
58661;SDS011;44432;49.786;22.760;2023-05-20T01:41:53;20.40;;;18.20;;
58661;SDS011;44432;49.786;22.760;2023-05-20T01:44:25;19.90;;;17.80;;
58661;SDS011;44432;49.786;22.760;2023-05-20T01:46:56;19.60;;;17.50;;
58661;SDS011;44432;49.786;22.760;2023-05-20T01:49:27;19.10;;;16.80;;
58661;SDS011;44432;49.786;22.760;2023-05-20T01:51:58;19.80;;;17.10;;
58661;SDS011;44432;49.786;22.760;2023-05-20T01:54:28;22.00;;;17.60;;
58661;SDS011;44432;49.786;22.760;2023-05-20T01:56:59;20.70;;;16.50;;
58661;SDS011;44432;49.786;22.760;2023-05-20T01:59:30;18.50;;;15.50;;
58661;SDS011;44432;49.786;22.760;2023-05-20T02:02:00;18.70;;;16.60;;
58661;SDS011;44432;49.786;22.760;2023-05-20T02:04:31;18.10;;;16.20;;
58661;SDS011;44432;49.786;22.760;2023-05-20T02:07:02;17.90;;;16.00;;
58661;SDS011;44432;49.786;22.760;2023-05-20T02:09:33;18.20;;;16.40;;
58661;SDS011;44432;49.786;22.760;2023-05-20T02:12:06;18.70;;;16.70;;
58661;SDS011;44432;49.786;22.760;2023-05-20T02:14:42;18.50;;;16.30;;
58661;SDS011;44432;49.786;22.760;2023-05-20T02:17:14;19.70;;;17.10;;
58661;SDS011;44432;49.786;22.760;2023-05-20T02:19:45;17.50;;;15.80;;
58661;SDS011;44432;49.786;22.760;2023-05-20T02:22:16;18.30;;;16.40;;
58661;SDS011;44432;49.786;22.760;2023-05-20T02:24:47;20.20;;;16.30;;
58661;SDS011;44432;49.786;22.760;2023-05-20T02:27:17;18.80;;;16.60;;
58661;SDS011;44432;49.786;22.760;2023-05-20T02:29:48;21.00;;;17.00;;
58661;SDS011;44432;49.786;22.760;2023-05-20T02:32:19;20.90;;;16.30;;
58661;SDS011;44432;49.786;22.760;2023-05-20T02:34:54;18.00;;;16.10;;
58661;SDS011;44432;49.786;22.760;2023-05-20T02:37:25;19.90;;;16.20;;
58661;SDS011;44432;49.786;22.760;2023-05-20T02:39:56;18.90;;;16.40;;
58661;SDS011;44432;49.786;22.760;2023-05-20T02:42:27;19.30;;;17.20;;
58661;SDS011;44432;49.786;22.760;2023-05-20T02:44:58;18.90;;;15.70;;
58661;SDS011;44432;49.786;22.760;2023-05-20T02:47:28;18.70;;;16.40;;
58661;SDS011;44432;49.786;22.760;2023-05-20T02:49:59;18.00;;;16.10;;
58661;SDS011;44432;49.786;22.760;2023-05-20T02:52:30;17.40;;;15.50;;
58661;SDS011;44432;49.786;22.760;2023-05-20T02:55:01;19.50;;;16.20;;
58661;SDS011;44432;49.786;22.760;2023-05-20T02:57:32;18.90;;;16.80;;
58661;SDS011;44432;49.786;22.760;2023-05-20T03:00:06;18.10;;;15.50;;
58661;SDS011;44432;49.786;22.760;2023-05-20T03:02:38;21.70;;;16.70;;
58661;SDS011;44432;49.786;22.760;2023-05-20T03:05:09;19.40;;;16.60;;
58661;SDS011;44432;49.786;22.760;2023-05-20T03:07:40;21.10;;;18.40;;
58661;SDS011;44432;49.786;22.760;2023-05-20T03:10:10;22.70;;;18.30;;
58661;SDS011;44432;49.786;22.760;2023-05-20T03:12:41;25.00;;;19.10;;
58661;SDS011;44432;49.786;22.760;2023-05-20T03:15:11;20.40;;;18.20;;
58661;SDS011;44432;49.786;22.760;2023-05-20T03:17:42;20.80;;;17.20;;
58661;SDS011;44432;49.786;22.760;2023-05-20T03:20:13;20.60;;;17.80;;
58661;SDS011;44432;49.786;22.760;2023-05-20T03:22:44;22.20;;;17.20;;
58661;SDS011;44432;49.786;22.760;2023-05-20T03:25:15;21.10;;;17.60;;
58661;SDS011;44432;49.786;22.760;2023-05-20T03:27:45;19.50;;;17.00;;
58661;SDS011;44432;49.786;22.760;2023-05-20T03:30:16;20.30;;;15.90;;
58661;SDS011;44432;49.786;22.760;2023-05-20T03:32:47;19.60;;;17.00;;
58661;SDS011;44432;49.786;22.760;2023-05-20T03:35:18;20.10;;;15.80;;
58661;SDS011;44432;49.786;22.760;2023-05-20T03:37:49;19.40;;;16.40;;
58661;SDS011;44432;49.786;22.760;2023-05-20T03:40:20;19.50;;;16.50;;
58661;SDS011;44432;49.786;22.760;2023-05-20T03:42:50;18.90;;;16.90;;
58661;SDS011;44432;49.786;22.760;2023-05-20T03:45:21;19.60;;;17.10;;
58661;SDS011;44432;49.786;22.760;2023-05-20T03:47:52;19.90;;;16.20;;
58661;SDS011;44432;49.786;22.760;2023-05-20T03:50:22;18.70;;;15.90;;
58661;SDS011;44432;49.786;22.760;2023-05-20T03:52:53;19.40;;;16.30;;
58661;SDS011;44432;49.786;22.760;2023-05-20T03:55:24;22.10;;;16.10;;
58661;SDS011;44432;49.786;22.760;2023-05-20T03:57:55;18.90;;;15.80;;
58661;SDS011;44432;49.786;22.760;2023-05-20T04:00:27;17.80;;;16.00;;
58661;SDS011;44432;49.786;22.760;2023-05-20T04:02:58;16.80;;;15.00;;
58661;SDS011;44432;49.786;22.760;2023-05-20T04:05:29;18.80;;;15.50;;
58661;SDS011;44432;49.786;22.760;2023-05-20T04:08:00;16.50;;;14.80;;
58661;SDS011;44432;49.786;22.760;2023-05-20T04:10:32;18.70;;;15.00;;
58661;SDS011;44432;49.786;22.760;2023-05-20T04:13:02;16.80;;;14.70;;
58661;SDS011;44432;49.786;22.760;2023-05-20T04:15:35;17.50;;;14.60;;
58661;SDS011;44432;49.786;22.760;2023-05-20T04:18:06;17.10;;;14.20;;
58661;SDS011;44432;49.786;22.760;2023-05-20T04:20:36;17.10;;;14.20;;
58661;SDS011;44432;49.786;22.760;2023-05-20T04:23:07;15.70;;;14.00;;
58661;SDS011;44432;49.786;22.760;2023-05-20T04:25:38;15.50;;;13.80;;
58661;SDS011;44432;49.786;22.760;2023-05-20T04:28:11;16.10;;;14.40;;
58661;SDS011;44432;49.786;22.760;2023-05-20T04:30:43;16.50;;;13.70;;
58661;SDS011;44432;49.786;22.760;2023-05-20T04:33:13;17.50;;;14.40;;
58661;SDS011;44432;49.786;22.760;2023-05-20T04:35:45;16.40;;;13.90;;
58661;SDS011;44432;49.786;22.760;2023-05-20T04:38:16;21.90;;;14.90;;
58661;SDS011;44432;49.786;22.760;2023-05-20T04:40:46;20.20;;;15.30;;
58661;SDS011;44432;49.786;22.760;2023-05-20T04:43:17;16.70;;;14.40;;
58661;SDS011;44432;49.786;22.760;2023-05-20T04:45:48;17.80;;;15.70;;
58661;SDS011;44432;49.786;22.760;2023-05-20T04:48:20;18.80;;;15.10;;
58661;SDS011;44432;49.786;22.760;2023-05-20T04:50:51;19.50;;;14.60;;
58661;SDS011;44432;49.786;22.760;2023-05-20T04:53:22;22.80;;;15.30;;
58661;SDS011;44432;49.786;22.760;2023-05-20T04:55:54;19.40;;;16.20;;
58661;SDS011;44432;49.786;22.760;2023-05-20T04:58:25;22.00;;;16.50;;
58661;SDS011;44432;49.786;22.760;2023-05-20T05:00:57;21.80;;;17.10;;
58661;SDS011;44432;49.786;22.760;2023-05-20T05:03:28;20.60;;;16.80;;
58661;SDS011;44432;49.786;22.760;2023-05-20T05:05:58;23.50;;;17.40;;
58661;SDS011;44432;49.786;22.760;2023-05-20T05:08:29;23.50;;;18.20;;
58661;SDS011;44432;49.786;22.760;2023-05-20T05:10:59;25.50;;;19.10;;
58661;SDS011;44432;49.786;22.760;2023-05-20T05:13:32;24.60;;;19.10;;
58661;SDS011;44432;49.786;22.760;2023-05-20T05:16:03;19.90;;;17.70;;
58661;SDS011;44432;49.786;22.760;2023-05-20T05:18:34;21.20;;;18.80;;
58661;SDS011;44432;49.786;22.760;2023-05-20T05:21:05;22.20;;;18.60;;
58661;SDS011;44432;49.786;22.760;2023-05-20T05:23:36;22.50;;;19.10;;
58661;SDS011;44432;49.786;22.760;2023-05-20T05:26:09;22.50;;;19.20;;
58661;SDS011;44432;49.786;22.760;2023-05-20T05:28:41;24.90;;;18.50;;
58661;SDS011;44432;49.786;22.760;2023-05-20T05:31:11;23.30;;;19.30;;
58661;SDS011;44432;49.786;22.760;2023-05-20T05:33:42;27.90;;;21.40;;
58661;SDS011;44432;49.786;22.760;2023-05-20T05:36:12;29.50;;;23.40;;
58661;SDS011;44432;49.786;22.760;2023-05-20T05:38:43;25.30;;;21.80;;
58661;SDS011;44432;49.786;22.760;2023-05-20T05:41:14;28.30;;;21.30;;
58661;SDS011;44432;49.786;22.760;2023-05-20T05:43:45;29.10;;;21.80;;
58661;SDS011;44432;49.786;22.760;2023-05-20T05:46:15;25.70;;;21.60;;
58661;SDS011;44432;49.786;22.760;2023-05-20T05:48:46;29.80;;;22.20;;
58661;SDS011;44432;49.786;22.760;2023-05-20T05:51:17;28.20;;;20.70;;
58661;SDS011;44432;49.786;22.760;2023-05-20T05:53:48;23.40;;;19.70;;
58661;SDS011;44432;49.786;22.760;2023-05-20T05:56:19;27.10;;;20.30;;
58661;SDS011;44432;49.786;22.760;2023-05-20T05:58:50;26.30;;;21.00;;
58661;SDS011;44432;49.786;22.760;2023-05-20T06:01:20;28.00;;;22.50;;
58661;SDS011;44432;49.786;22.760;2023-05-20T06:03:51;27.60;;;21.40;;
58661;SDS011;44432;49.786;22.760;2023-05-20T06:06:21;27.10;;;22.90;;
58661;SDS011;44432;49.786;22.760;2023-05-20T06:08:52;26.40;;;22.10;;
58661;SDS011;44432;49.786;22.760;2023-05-20T06:11:24;26.30;;;20.70;;
58661;SDS011;44432;49.786;22.760;2023-05-20T06:13:55;33.40;;;23.90;;
58661;SDS011;44432;49.786;22.760;2023-05-20T06:16:26;31.10;;;22.40;;
58661;SDS011;44432;49.786;22.760;2023-05-20T06:18:57;29.60;;;22.90;;
58661;SDS011;44432;49.786;22.760;2023-05-20T06:21:28;29.80;;;21.40;;
58661;SDS011;44432;49.786;22.760;2023-05-20T06:23:59;31.20;;;22.20;;
58661;SDS011;44432;49.786;22.760;2023-05-20T06:26:29;30.80;;;23.10;;
58661;SDS011;44432;49.786;22.760;2023-05-20T06:29:00;28.20;;;23.40;;
58661;SDS011;44432;49.786;22.760;2023-05-20T06:31:31;35.00;;;24.90;;
58661;SDS011;44432;49.786;22.760;2023-05-20T06:34:02;28.10;;;22.70;;
58661;SDS011;44432;49.786;22.760;2023-05-20T06:36:33;28.60;;;22.80;;
58661;SDS011;44432;49.786;22.760;2023-05-20T06:39:03;29.90;;;22.70;;
58661;SDS011;44432;49.786;22.760;2023-05-20T06:41:39;32.90;;;23.60;;
58661;SDS011;44432;49.786;22.760;2023-05-20T06:44:11;32.70;;;24.80;;
58661;SDS011;44432;49.786;22.760;2023-05-20T06:46:41;31.20;;;22.80;;
58661;SDS011;44432;49.786;22.760;2023-05-20T06:49:12;34.80;;;24.70;;
58661;SDS011;44432;49.786;22.760;2023-05-20T06:51:43;37.30;;;27.20;;
58661;SDS011;44432;49.786;22.760;2023-05-20T06:54:13;31.20;;;22.00;;
58661;SDS011;44432;49.786;22.760;2023-05-20T06:56:44;32.10;;;23.50;;
58661;SDS011;44432;49.786;22.760;2023-05-20T06:59:15;30.00;;;21.20;;
58661;SDS011;44432;49.786;22.760;2023-05-20T07:01:45;30.40;;;21.20;;
58661;SDS011;44432;49.786;22.760;2023-05-20T07:04:16;33.20;;;24.30;;
58661;SDS011;44432;49.786;22.760;2023-05-20T07:06:47;31.60;;;21.60;;
58661;SDS011;44432;49.786;22.760;2023-05-20T07:09:17;34.00;;;24.30;;
58661;SDS011;44432;49.786;22.760;2023-05-20T07:11:48;29.80;;;22.60;;
58661;SDS011;44432;49.786;22.760;2023-05-20T07:14:19;28.40;;;22.40;;
58661;SDS011;44432;49.786;22.760;2023-05-20T07:16:49;31.40;;;22.90;;
58661;SDS011;44432;49.786;22.760;2023-05-20T07:19:20;33.00;;;23.20;;
58661;SDS011;44432;49.786;22.760;2023-05-20T07:21:50;31.00;;;23.30;;
58661;SDS011;44432;49.786;22.760;2023-05-20T07:24:21;31.90;;;25.40;;
58661;SDS011;44432;49.786;22.760;2023-05-20T07:26:52;29.80;;;21.00;;
58661;SDS011;44432;49.786;22.760;2023-05-20T07:29:23;27.80;;;22.10;;
58661;SDS011;44432;49.786;22.760;2023-05-20T07:31:53;31.40;;;21.30;;
58661;SDS011;44432;49.786;22.760;2023-05-20T07:34:24;27.60;;;21.10;;
58661;SDS011;44432;49.786;22.760;2023-05-20T07:36:56;24.80;;;20.00;;
58661;SDS011;44432;49.786;22.760;2023-05-20T07:39:26;30.80;;;22.10;;
58661;SDS011;44432;49.786;22.760;2023-05-20T07:41:57;29.20;;;22.10;;
58661;SDS011;44432;49.786;22.760;2023-05-20T07:44:28;26.90;;;21.90;;
58661;SDS011;44432;49.786;22.760;2023-05-20T07:46:58;26.90;;;21.30;;
58661;SDS011;44432;49.786;22.760;2023-05-20T07:49:29;28.60;;;24.00;;
58661;SDS011;44432;49.786;22.760;2023-05-20T07:52:00;28.30;;;23.90;;
58661;SDS011;44432;49.786;22.760;2023-05-20T07:54:30;29.20;;;23.20;;
58661;SDS011;44432;49.786;22.760;2023-05-20T07:57:02;27.50;;;21.80;;
58661;SDS011;44432;49.786;22.760;2023-05-20T07:59:33;28.50;;;22.00;;
58661;SDS011;44432;49.786;22.760;2023-05-20T08:02:04;23.80;;;21.00;;
58661;SDS011;44432;49.786;22.760;2023-05-20T08:04:36;27.90;;;20.80;;
58661;SDS011;44432;49.786;22.760;2023-05-20T08:07:06;24.00;;;20.30;;
58661;SDS011;44432;49.786;22.760;2023-05-20T08:09:37;31.40;;;25.70;;
58661;SDS011;44432;49.786;22.760;2023-05-20T08:12:08;28.70;;;24.60;;
58661;SDS011;44432;49.786;22.760;2023-05-20T08:14:38;36.30;;;27.00;;
58661;SDS011;44432;49.786;22.760;2023-05-20T08:17:10;32.60;;;27.40;;
58661;SDS011;44432;49.786;22.760;2023-05-20T08:19:40;32.10;;;26.40;;
58661;SDS011;44432;49.786;22.760;2023-05-20T08:22:11;31.20;;;24.90;;
58661;SDS011;44432;49.786;22.760;2023-05-20T08:24:42;33.20;;;24.50;;
58661;SDS011;44432;49.786;22.760;2023-05-20T08:27:12;32.30;;;24.10;;
58661;SDS011;44432;49.786;22.760;2023-05-20T08:29:44;28.80;;;23.60;;
58661;SDS011;44432;49.786;22.760;2023-05-20T08:32:14;27.60;;;21.70;;
58661;SDS011;44432;49.786;22.760;2023-05-20T08:34:45;21.90;;;19.00;;
58661;SDS011;44432;49.786;22.760;2023-05-20T08:37:16;24.20;;;19.50;;
58661;SDS011;44432;49.786;22.760;2023-05-20T08:39:47;27.50;;;19.50;;
58661;SDS011;44432;49.786;22.760;2023-05-20T08:42:20;22.30;;;18.20;;
58661;SDS011;44432;49.786;22.760;2023-05-20T08:44:51;23.60;;;19.60;;
58661;SDS011;44432;49.786;22.760;2023-05-20T08:47:23;25.90;;;22.00;;
58661;SDS011;44432;49.786;22.760;2023-05-20T08:49:55;22.80;;;19.60;;
58661;SDS011;44432;49.786;22.760;2023-05-20T08:52:26;22.00;;;19.20;;
58661;SDS011;44432;49.786;22.760;2023-05-20T08:54:59;25.60;;;20.40;;
58661;SDS011;44432;49.786;22.760;2023-05-20T08:57:34;25.60;;;21.80;;
58661;SDS011;44432;49.786;22.760;2023-05-20T09:00:07;25.60;;;22.50;;
58661;SDS011;44432;49.786;22.760;2023-05-20T09:02:40;26.10;;;21.30;;
58661;SDS011;44432;49.786;22.760;2023-05-20T09:05:10;28.40;;;21.00;;
58661;SDS011;44432;49.786;22.760;2023-05-20T09:07:41;23.10;;;19.70;;
58661;SDS011;44432;49.786;22.760;2023-05-20T09:10:12;26.20;;;21.10;;
58661;SDS011;44432;49.786;22.760;2023-05-20T09:12:43;25.30;;;21.30;;
58661;SDS011;44432;49.786;22.760;2023-05-20T09:15:14;26.00;;;20.40;;
58661;SDS011;44432;49.786;22.760;2023-05-20T09:17:44;24.80;;;21.20;;
58661;SDS011;44432;49.786;22.760;2023-05-20T09:22:51;23.00;;;20.40;;
58661;SDS011;44432;49.786;22.760;2023-05-20T09:25:22;31.90;;;23.00;;
58661;SDS011;44432;49.786;22.760;2023-05-20T09:27:53;28.70;;;23.90;;
58661;SDS011;44432;49.786;22.760;2023-05-20T09:30:24;28.10;;;23.10;;
58661;SDS011;44432;49.786;22.760;2023-05-20T09:32:55;24.30;;;20.50;;
58661;SDS011;44432;49.786;22.760;2023-05-20T09:35:26;27.50;;;21.00;;
58661;SDS011;44432;49.786;22.760;2023-05-20T09:37:57;24.10;;;21.40;;
58661;SDS011;44432;49.786;22.760;2023-05-20T09:40:28;25.00;;;20.20;;
58661;SDS011;44432;49.786;22.760;2023-05-20T09:43:00;23.10;;;20.60;;
58661;SDS011;44432;49.786;22.760;2023-05-20T09:45:33;34.70;;;22.20;;
58661;SDS011;44432;49.786;22.760;2023-05-20T09:48:05;21.90;;;19.40;;
58661;SDS011;44432;49.786;22.760;2023-05-20T09:50:38;24.40;;;21.40;;
58661;SDS011;44432;49.786;22.760;2023-05-20T09:53:09;25.40;;;21.50;;
58661;SDS011;44432;49.786;22.760;2023-05-20T09:55:41;24.00;;;21.40;;
58661;SDS011;44432;49.786;22.760;2023-05-20T09:58:12;26.20;;;21.80;;
58661;SDS011;44432;49.786;22.760;2023-05-20T10:00:43;23.80;;;21.40;;
58661;SDS011;44432;49.786;22.760;2023-05-20T10:03:14;25.40;;;21.60;;
58661;SDS011;44432;49.786;22.760;2023-05-20T10:05:46;28.50;;;23.30;;
58661;SDS011;44432;49.786;22.760;2023-05-20T10:08:27;25.10;;;22.60;;
58661;SDS011;44432;49.786;22.760;2023-05-20T10:11:11;30.20;;;23.70;;
58661;SDS011;44432;49.786;22.760;2023-05-20T10:13:52;25.50;;;20.30;;
58661;SDS011;44432;49.786;22.760;2023-05-20T10:16:37;24.60;;;21.60;;
58661;SDS011;44432;49.786;22.760;2023-05-20T10:19:26;25.10;;;22.50;;
58661;SDS011;44432;49.786;22.760;2023-05-20T10:21:59;25.30;;;22.50;;
58661;SDS011;44432;49.786;22.760;2023-05-20T10:24:30;25.90;;;21.10;;
58661;SDS011;44432;49.786;22.760;2023-05-20T10:27:03;28.40;;;22.70;;
58661;SDS011;44432;49.786;22.760;2023-05-20T10:29:43;24.80;;;21.30;;
58661;SDS011;44432;49.786;22.760;2023-05-20T10:32:23;25.80;;;22.30;;
58661;SDS011;44432;49.786;22.760;2023-05-20T10:34:59;26.80;;;21.70;;
58661;SDS011;44432;49.786;22.760;2023-05-20T10:37:32;26.60;;;21.20;;
58661;SDS011;44432;49.786;22.760;2023-05-20T10:40:10;25.40;;;21.80;;
58661;SDS011;44432;49.786;22.760;2023-05-20T10:42:43;24.50;;;21.00;;
58661;SDS011;44432;49.786;22.760;2023-05-20T10:45:25;24.70;;;21.40;;
58661;SDS011;44432;49.786;22.760;2023-05-20T10:47:59;26.80;;;22.30;;
58661;SDS011;44432;49.786;22.760;2023-05-20T10:50:33;27.00;;;21.70;;
58661;SDS011;44432;49.786;22.760;2023-05-20T10:53:05;25.20;;;22.00;;
58661;SDS011;44432;49.786;22.760;2023-05-20T10:55:47;23.50;;;20.50;;
58661;SDS011;44432;49.786;22.760;2023-05-20T10:58:21;24.80;;;22.20;;
58661;SDS011;44432;49.786;22.760;2023-05-20T11:00:53;25.50;;;20.90;;
58661;SDS011;44432;49.786;22.760;2023-05-20T11:03:24;23.10;;;20.70;;
58661;SDS011;44432;49.786;22.760;2023-05-20T11:05:55;25.90;;;21.50;;
58661;SDS011;44432;49.786;22.760;2023-05-20T11:08:28;27.30;;;21.30;;
58661;SDS011;44432;49.786;22.760;2023-05-20T11:10:59;24.70;;;21.40;;
58661;SDS011;44432;49.786;22.760;2023-05-20T11:13:29;22.40;;;20.10;;
58661;SDS011;44432;49.786;22.760;2023-05-20T11:16:01;23.70;;;19.00;;
58661;SDS011;44432;49.786;22.760;2023-05-20T11:18:32;21.90;;;19.60;;
58661;SDS011;44432;49.786;22.760;2023-05-20T11:21:03;23.30;;;19.70;;
58661;SDS011;44432;49.786;22.760;2023-05-20T11:23:34;21.80;;;19.00;;
58661;SDS011;44432;49.786;22.760;2023-05-20T11:26:05;20.90;;;18.70;;
58661;SDS011;44432;49.786;22.760;2023-05-20T11:28:35;23.00;;;18.20;;
58661;SDS011;44432;49.786;22.760;2023-05-20T11:31:06;20.60;;;17.80;;
58661;SDS011;44432;49.786;22.760;2023-05-20T11:33:41;21.10;;;17.10;;
58661;SDS011;44432;49.786;22.760;2023-05-20T11:36:12;23.20;;;17.90;;
58661;SDS011;44432;49.786;22.760;2023-05-20T11:38:44;19.80;;;16.80;;
58661;SDS011;44432;49.786;22.760;2023-05-20T11:41:15;20.90;;;17.20;;
58661;SDS011;44432;49.786;22.760;2023-05-20T11:43:55;22.90;;;17.70;;
58661;SDS011;44432;49.786;22.760;2023-05-20T11:46:27;20.60;;;16.40;;
58661;SDS011;44432;49.786;22.760;2023-05-20T11:48:57;19.70;;;16.80;;
58661;SDS011;44432;49.786;22.760;2023-05-20T11:51:28;21.20;;;16.90;;
58661;SDS011;44432;49.786;22.760;2023-05-20T11:54:00;18.80;;;16.80;;
58661;SDS011;44432;49.786;22.760;2023-05-20T11:56:31;23.30;;;19.10;;
58661;SDS011;44432;49.786;22.760;2023-05-20T11:59:04;20.60;;;18.50;;
58661;SDS011;44432;49.786;22.760;2023-05-20T12:01:37;21.40;;;16.90;;
58661;SDS011;44432;49.786;22.760;2023-05-20T12:04:08;20.00;;;17.80;;
58661;SDS011;44432;49.786;22.760;2023-05-20T12:06:41;18.80;;;16.80;;
58661;SDS011;44432;49.786;22.760;2023-05-20T12:09:11;20.40;;;18.00;;
58661;SDS011;44432;49.786;22.760;2023-05-20T12:11:42;22.00;;;17.30;;
58661;SDS011;44432;49.786;22.760;2023-05-20T12:14:13;19.20;;;15.90;;
58661;SDS011;44432;49.786;22.760;2023-05-20T12:16:44;21.70;;;15.90;;
58661;SDS011;44432;49.786;22.760;2023-05-20T12:19:14;19.60;;;17.50;;
58661;SDS011;44432;49.786;22.760;2023-05-20T12:21:45;19.90;;;16.40;;
58661;SDS011;44432;49.786;22.760;2023-05-20T12:24:15;19.70;;;15.70;;
58661;SDS011;44432;49.786;22.760;2023-05-20T12:26:46;17.20;;;15.40;;
58661;SDS011;44432;49.786;22.760;2023-05-20T12:29:17;18.50;;;14.90;;
58661;SDS011;44432;49.786;22.760;2023-05-20T12:31:47;19.10;;;14.90;;
58661;SDS011;44432;49.786;22.760;2023-05-20T12:34:18;18.70;;;15.60;;
58661;SDS011;44432;49.786;22.760;2023-05-20T12:36:48;20.40;;;15.90;;
58661;SDS011;44432;49.786;22.760;2023-05-20T12:39:19;16.70;;;14.30;;
58661;SDS011;44432;49.786;22.760;2023-05-20T12:41:50;15.80;;;14.10;;
58661;SDS011;44432;49.786;22.760;2023-05-20T12:44:20;18.10;;;14.90;;
58661;SDS011;44432;49.786;22.760;2023-05-20T12:46:53;21.40;;;14.70;;
58661;SDS011;44432;49.786;22.760;2023-05-20T12:49:24;16.50;;;14.70;;
58661;SDS011;44432;49.786;22.760;2023-05-20T12:51:54;17.80;;;15.90;;
58661;SDS011;44432;49.786;22.760;2023-05-20T12:54:25;19.70;;;14.80;;
58661;SDS011;44432;49.786;22.760;2023-05-20T12:56:56;17.00;;;15.20;;
58661;SDS011;44432;49.786;22.760;2023-05-20T12:59:29;17.00;;;14.40;;
58661;SDS011;44432;49.786;22.760;2023-05-20T13:02:01;17.00;;;14.00;;
58661;SDS011;44432;49.786;22.760;2023-05-20T13:04:32;16.50;;;14.30;;
58661;SDS011;44432;49.786;22.760;2023-05-20T13:07:03;15.70;;;13.60;;
58661;SDS011;44432;49.786;22.760;2023-05-20T13:09:34;16.60;;;13.00;;
58661;SDS011;44432;49.786;22.760;2023-05-20T13:12:05;15.20;;;13.70;;
58661;SDS011;44432;49.786;22.760;2023-05-20T13:14:36;15.70;;;13.80;;
58661;SDS011;44432;49.786;22.760;2023-05-20T13:17:08;17.10;;;12.90;;
58661;SDS011;44432;49.786;22.760;2023-05-20T13:19:38;15.80;;;12.80;;
58661;SDS011;44432;49.786;22.760;2023-05-20T13:22:09;13.80;;;12.30;;
58661;SDS011;44432;49.786;22.760;2023-05-20T13:24:40;11.90;;;9.30;;
58661;SDS011;44432;49.786;22.760;2023-05-20T13:27:10;10.30;;;6.50;;
58661;SDS011;44432;49.786;22.760;2023-05-20T13:29:41;11.30;;;6.10;;
58661;SDS011;44432;49.786;22.760;2023-05-20T13:32:12;10.50;;;5.40;;
58661;SDS011;44432;49.786;22.760;2023-05-20T13:34:43;11.30;;;6.40;;
58661;SDS011;44432;49.786;22.760;2023-05-20T13:37:13;8.50;;;5.70;;
58661;SDS011;44432;49.786;22.760;2023-05-20T13:39:44;9.70;;;6.20;;
58661;SDS011;44432;49.786;22.760;2023-05-20T13:42:16;10.70;;;7.00;;
58661;SDS011;44432;49.786;22.760;2023-05-20T13:44:46;17.90;;;8.50;;
58661;SDS011;44432;49.786;22.760;2023-05-20T13:47:17;17.30;;;9.90;;
58661;SDS011;44432;49.786;22.760;2023-05-20T13:49:47;16.20;;;9.60;;
58661;SDS011;44432;49.786;22.760;2023-05-20T13:52:18;16.30;;;10.60;;
58661;SDS011;44432;49.786;22.760;2023-05-20T13:54:49;19.80;;;11.50;;
58661;SDS011;44432;49.786;22.760;2023-05-20T13:57:19;18.00;;;10.90;;
58661;SDS011;44432;49.786;22.760;2023-05-20T13:59:50;12.70;;;10.60;;
58661;SDS011;44432;49.786;22.760;2023-05-20T14:02:21;17.10;;;11.10;;
58661;SDS011;44432;49.786;22.760;2023-05-20T14:04:51;14.90;;;10.80;;
58661;SDS011;44432;49.786;22.760;2023-05-20T14:07:22;13.20;;;11.00;;
58661;SDS011;44432;49.786;22.760;2023-05-20T14:09:53;13.90;;;11.30;;
58661;SDS011;44432;49.786;22.760;2023-05-20T14:12:23;18.10;;;12.80;;
58661;SDS011;44432;49.786;22.760;2023-05-20T14:14:54;14.40;;;12.30;;
58661;SDS011;44432;49.786;22.760;2023-05-20T14:17:25;15.00;;;12.60;;
58661;SDS011;44432;49.786;22.760;2023-05-20T14:19:55;14.00;;;11.40;;
58661;SDS011;44432;49.786;22.760;2023-05-20T14:22:27;14.30;;;12.40;;
58661;SDS011;44432;49.786;22.760;2023-05-20T14:24:58;17.80;;;13.30;;
58661;SDS011;44432;49.786;22.760;2023-05-20T14:27:28;20.60;;;14.90;;
58661;SDS011;44432;49.786;22.760;2023-05-20T14:29:59;17.10;;;13.30;;
58661;SDS011;44432;49.786;22.760;2023-05-20T14:32:30;21.40;;;14.10;;
58661;SDS011;44432;49.786;22.760;2023-05-20T14:35:01;16.50;;;12.80;;
58661;SDS011;44432;49.786;22.760;2023-05-20T14:37:33;18.50;;;13.10;;